createdAt,value
2024-01-06T00:01:17.882Z,61.49
2024-01-06T00:03:44.834Z,61.64
2024-01-06T00:06:15.686Z,61.65
2024-01-06T00:08:42.589Z,61.33
2024-01-06T00:11:10.674Z,61.12
2024-01-06T00:13:37.361Z,61.22
2024-01-06T00:16:04.355Z,61.30
2024-01-06T00:18:31.227Z,61.53
2024-01-06T00:20:57.939Z,61.61
2024-01-06T00:23:24.718Z,61.71
2024-01-06T00:25:51.372Z,61.83
2024-01-06T00:28:18.007Z,61.79
2024-01-06T00:30:44.695Z,61.64
2024-01-06T00:33:11.694Z,61.78
2024-01-06T00:35:38.450Z,61.92
2024-01-06T00:38:05.081Z,61.65
2024-01-06T00:40:33.801Z,61.96
2024-01-06T00:43:00.492Z,61.92
2024-01-06T00:45:27.230Z,61.88
2024-01-06T00:47:54.020Z,61.67
2024-01-06T00:50:20.877Z,62.01
2024-01-06T00:52:47.964Z,62.05
2024-01-06T00:55:14.842Z,62.12
2024-01-06T00:57:41.581Z,61.73
2024-01-06T01:00:09.837Z,62.35
2024-01-06T01:02:39.424Z,62.20
2024-01-06T01:05:08.650Z,62.37
2024-01-06T01:07:35.508Z,62.14
2024-01-06T01:10:02.360Z,62.38
2024-01-06T01:12:29.131Z,62.27
2024-01-06T01:14:55.904Z,62.57
2024-01-06T01:17:22.674Z,62.17
2024-01-06T01:19:51.421Z,61.94
2024-01-06T01:22:18.189Z,62.10
2024-01-06T01:24:45.109Z,62.21
2024-01-06T01:27:11.943Z,62.27
2024-01-06T01:29:38.663Z,62.03
2024-01-06T01:32:06.094Z,62.28
2024-01-06T01:34:33.149Z,62.26
2024-01-06T01:37:00.765Z,62.19
2024-01-06T01:39:27.571Z,62.24
2024-01-06T01:41:54.293Z,62.19
2024-01-06T01:44:20.912Z,62.14
2024-01-06T01:46:47.657Z,61.94
2024-01-06T01:49:14.551Z,62.08
2024-01-06T01:51:41.493Z,61.91
2024-01-06T01:54:08.856Z,61.85
2024-01-06T01:56:36.015Z,61.63
2024-01-06T01:59:18.909Z,61.84
2024-01-06T02:01:45.846Z,61.55
2024-01-06T02:04:13.738Z,61.49
2024-01-06T02:06:40.502Z,61.72
2024-01-06T02:09:07.444Z,61.66
2024-01-06T02:11:34.228Z,61.36
2024-01-06T02:14:01.647Z,61.25
2024-01-06T02:16:28.286Z,61.44
2024-01-06T02:18:55.406Z,61.08
2024-01-06T02:21:24.051Z,61.21
2024-01-06T02:23:50.932Z,61.23
2024-01-06T02:26:17.791Z,60.98
2024-01-06T02:28:49.100Z,61.16
2024-01-06T02:31:16.133Z,61.11
2024-01-06T02:33:43.020Z,60.87
2024-01-06T02:36:09.873Z,61.58
2024-01-06T02:38:36.564Z,61.40
2024-01-06T02:41:03.336Z,61.46
2024-01-06T02:43:30.041Z,61.58
2024-01-06T02:45:56.712Z,61.32
2024-01-06T02:48:23.481Z,61.65
2024-01-06T02:50:50.272Z,61.95
2024-01-06T02:53:17.016Z,61.82
2024-01-06T02:55:43.644Z,61.88
2024-01-06T02:58:10.397Z,61.62
2024-01-06T03:00:37.116Z,61.96
2024-01-06T03:03:04.047Z,61.67
2024-01-06T03:05:30.714Z,61.72
2024-01-06T03:07:57.341Z,61.60
2024-01-06T03:10:24.028Z,61.39
2024-01-06T03:12:50.830Z,61.44
2024-01-06T03:15:17.593Z,61.79
2024-01-06T03:17:44.373Z,61.70
2024-01-06T03:20:11.323Z,61.35
2024-01-06T03:22:39.300Z,61.69
2024-01-06T03:25:07.467Z,61.27
2024-01-06T03:27:34.724Z,61.31
2024-01-06T03:30:01.387Z,61.35
2024-01-06T03:32:29.749Z,61.03
2024-01-06T03:34:56.597Z,60.93
2024-01-06T03:37:23.724Z,60.79
2024-01-06T03:39:50.481Z,60.88
2024-01-06T03:42:17.313Z,60.37
2024-01-06T03:44:43.948Z,60.71
2024-01-06T03:47:10.585Z,60.44
2024-01-06T03:49:37.265Z,59.92
2024-01-06T03:52:04.270Z,59.65
2024-01-06T03:54:30.991Z,59.77
2024-01-06T03:56:57.665Z,59.58
2024-01-06T03:59:24.291Z,59.17
2024-01-06T04:01:50.889Z,58.97
2024-01-06T04:04:17.616Z,59.22
2024-01-06T04:06:44.314Z,58.92
2024-01-06T04:09:11.324Z,58.95
2024-01-06T04:11:38.025Z,58.81
2024-01-06T04:14:04.718Z,58.38
2024-01-06T04:16:31.401Z,58.32
2024-01-06T04:18:58.164Z,58.53
2024-01-06T04:21:24.878Z,58.28
2024-01-06T04:23:51.723Z,58.23
2024-01-06T04:26:18.474Z,58.13
2024-01-06T04:28:45.119Z,57.85
2024-01-06T04:31:12.448Z,57.96
2024-01-06T04:33:41.794Z,57.92
2024-01-06T04:36:08.971Z,57.74
2024-01-06T04:38:35.761Z,57.90
2024-01-06T04:41:02.553Z,57.89
2024-01-06T04:43:29.709Z,58.20
2024-01-06T04:45:57.804Z,57.87
2024-01-06T04:48:24.981Z,57.90
2024-01-06T04:50:51.769Z,58.04
2024-01-06T04:53:18.661Z,57.74
2024-01-06T04:55:45.302Z,57.79
2024-01-06T04:58:12.493Z,57.68
2024-01-06T05:00:39.198Z,57.39
2024-01-06T05:03:06.005Z,57.48
2024-01-06T05:05:32.713Z,57.62
2024-01-06T05:08:00.376Z,57.58
2024-01-06T05:10:27.058Z,57.39
2024-01-06T05:12:53.887Z,57.41
2024-01-06T05:15:20.732Z,57.32
2024-01-06T05:17:47.534Z,57.10
2024-01-06T05:20:14.325Z,57.42
2024-01-06T05:22:40.959Z,57.26
2024-01-06T05:25:07.892Z,57.36
2024-01-06T05:27:34.530Z,57.74
2024-01-06T05:30:01.209Z,57.21
2024-01-06T05:32:28.217Z,57.64
2024-01-06T05:34:55.062Z,57.34
2024-01-06T05:37:21.805Z,57.33
2024-01-06T05:39:49.380Z,57.58
2024-01-06T05:42:16.574Z,57.30
2024-01-06T05:44:43.230Z,57.62
2024-01-06T05:47:10.060Z,57.24
2024-01-06T05:49:36.887Z,57.53
2024-01-06T05:52:03.663Z,57.38
2024-01-06T05:54:31.678Z,57.26
2024-01-06T05:56:58.427Z,57.74
2024-01-06T05:59:25.540Z,57.40
2024-01-06T06:01:53.627Z,57.57
2024-01-06T06:04:20.555Z,57.58
2024-01-06T06:06:47.309Z,57.60
2024-01-06T06:09:14.610Z,57.76
2024-01-06T06:11:41.340Z,57.63
2024-01-06T06:14:07.939Z,57.60
2024-01-06T06:16:34.565Z,57.70
2024-01-06T06:19:01.344Z,57.60
2024-01-06T06:21:29.095Z,57.72
2024-01-06T06:23:55.768Z,57.53
2024-01-06T06:26:23.102Z,57.70
2024-01-06T06:28:49.711Z,57.42
2024-01-06T06:31:16.455Z,57.80
2024-01-06T06:33:43.584Z,57.60
2024-01-06T06:36:11.513Z,57.62
2024-01-06T06:38:38.543Z,57.17
2024-01-06T06:41:05.202Z,57.46
2024-01-06T06:43:31.849Z,57.38
2024-01-06T06:45:58.675Z,57.73
2024-01-06T06:48:25.702Z,57.15
2024-01-06T06:50:52.544Z,57.30
2024-01-06T06:53:19.245Z,57.12
2024-01-06T06:55:45.894Z,57.21
2024-01-06T06:58:12.675Z,56.98
2024-01-06T07:00:39.563Z,57.07
2024-01-06T07:03:06.447Z,57.11
2024-01-06T07:05:33.282Z,56.93
2024-01-06T07:08:02.778Z,56.90
2024-01-06T07:10:29.673Z,56.79
2024-01-06T07:12:56.498Z,56.89
2024-01-06T07:15:26.034Z,56.54
2024-01-06T07:17:52.799Z,56.46
2024-01-06T07:20:20.922Z,56.98
2024-01-06T07:22:47.598Z,56.64
2024-01-06T07:25:14.270Z,56.49
2024-01-06T07:27:40.998Z,56.64
2024-01-06T07:30:09.542Z,56.65
2024-01-06T07:32:36.262Z,56.67
2024-01-06T07:35:07.364Z,57.16
2024-01-06T07:37:34.846Z,57.07
2024-01-06T07:40:01.488Z,56.95
2024-01-06T07:42:28.168Z,56.62
2024-01-06T07:44:54.925Z,56.87
2024-01-06T07:47:21.565Z,56.85
2024-01-06T07:49:48.979Z,57.19
2024-01-06T07:52:15.678Z,57.00
2024-01-06T07:54:44.860Z,57.10
2024-01-06T07:57:12.526Z,57.14
2024-01-06T07:59:39.249Z,56.92
2024-01-06T08:02:05.895Z,57.06
2024-01-06T08:04:32.733Z,57.01
2024-01-06T08:06:59.576Z,56.81
2024-01-06T08:09:26.242Z,56.81
2024-01-06T08:11:52.976Z,56.56
2024-01-06T08:18:03.959Z,56.58
2024-01-06T08:21:24.140Z,56.46
2024-01-06T08:23:53.710Z,56.09
2024-01-06T08:26:27.894Z,56.34
2024-01-06T08:28:57.449Z,56.10
2024-01-06T08:31:24.410Z,56.46
2024-01-06T08:33:51.293Z,56.02
2024-01-06T08:36:18.616Z,56.25
2024-01-06T08:38:45.300Z,56.09
2024-01-06T08:41:11.963Z,55.84
2024-01-06T08:43:38.605Z,55.99
2024-01-06T08:46:07.038Z,55.73
2024-01-06T08:48:36.397Z,55.96
2024-01-06T08:51:03.328Z,56.00
2024-01-06T08:53:30.090Z,55.93
2024-01-06T08:55:57.197Z,56.13
2024-01-06T08:58:24.045Z,56.01
2024-01-06T09:00:51.554Z,56.07
2024-01-06T09:03:26.363Z,55.75
2024-01-06T09:05:53.989Z,55.85
2024-01-06T09:08:20.714Z,55.67
2024-01-06T09:10:47.616Z,55.67
2024-01-06T09:13:14.239Z,55.88
2024-01-06T09:15:40.910Z,55.99
2024-01-06T09:18:07.798Z,55.84
2024-01-06T09:20:34.610Z,55.50
2024-01-06T09:23:01.941Z,55.66
2024-01-06T09:25:28.658Z,55.64
2024-01-06T09:27:55.574Z,55.23
2024-01-06T09:30:22.408Z,55.29
2024-01-06T09:32:49.307Z,55.60
2024-01-06T09:35:16.102Z,55.51
2024-01-06T09:37:42.896Z,55.40
2024-01-06T09:40:14.457Z,55.60
2024-01-06T09:42:41.753Z,55.75
2024-01-06T09:45:09.470Z,56.02
2024-01-06T09:47:41.671Z,56.16
2024-01-06T09:50:11.162Z,56.11
2024-01-06T09:52:44.728Z,55.89
2024-01-06T09:55:12.736Z,56.25
2024-01-06T09:57:40.170Z,56.10
2024-01-06T10:00:09.627Z,56.48
2024-01-06T10:02:36.340Z,56.48
2024-01-06T10:05:03.244Z,56.27
2024-01-06T10:07:30.285Z,56.61
2024-01-06T10:09:57.446Z,56.50
2024-01-06T10:12:26.438Z,56.50
2024-01-06T10:14:53.758Z,56.61
2024-01-06T10:17:20.616Z,56.30
2024-01-06T10:19:48.942Z,56.48
2024-01-06T10:22:16.455Z,56.34
2024-01-06T10:24:43.180Z,56.72
2024-01-06T10:27:10.263Z,56.34
2024-01-06T10:29:36.975Z,56.53
2024-01-06T10:32:04.247Z,56.59
2024-01-06T10:34:33.698Z,56.82
2024-01-06T10:37:00.888Z,56.60
2024-01-06T10:39:40.031Z,56.66
2024-01-06T10:42:07.997Z,56.97
2024-01-06T10:44:35.264Z,56.80
2024-01-06T10:47:03.990Z,57.03
2024-01-06T10:49:31.922Z,57.11
2024-01-06T10:51:59.797Z,57.16
2024-01-06T10:54:29.541Z,56.87
2024-01-06T10:56:58.509Z,57.16
2024-01-06T10:59:27.728Z,57.35
2024-01-06T11:01:55.783Z,57.40
2024-01-06T11:04:24.569Z,57.59
2024-01-06T11:06:51.966Z,57.70
2024-01-06T11:09:27.034Z,57.37
2024-01-06T11:11:58.338Z,57.58
2024-01-06T11:14:26.873Z,57.43
2024-01-06T11:16:54.624Z,57.72
2024-01-06T11:19:37.597Z,57.64
2024-01-06T11:22:36.538Z,57.63
2024-01-06T11:25:09.484Z,57.40
2024-01-06T11:27:37.502Z,57.60
2024-01-06T11:30:07.701Z,57.34
2024-01-06T11:32:42.103Z,57.04
2024-01-06T11:35:13.176Z,57.19
2024-01-06T11:37:42.966Z,57.22
2024-01-06T11:40:20.472Z,57.21
2024-01-06T11:42:48.488Z,56.89
2024-01-06T11:45:16.688Z,56.64
2024-01-06T11:47:49.316Z,56.83
2024-01-06T11:50:16.953Z,56.76
2024-01-06T11:52:43.715Z,56.59
2024-01-06T11:55:11.309Z,56.70
2024-01-06T11:57:39.004Z,56.63
2024-01-06T12:00:06.907Z,56.65
2024-01-06T12:02:33.565Z,56.58
2024-01-06T12:05:00.327Z,56.31
2024-01-06T12:07:27.034Z,56.53
2024-01-06T12:10:03.320Z,56.61
2024-01-06T12:12:30.184Z,56.58
2024-01-06T12:14:56.900Z,56.38
2024-01-06T12:17:23.884Z,56.48
2024-01-06T12:19:50.659Z,56.44
2024-01-06T12:22:17.742Z,56.51
2024-01-06T12:24:45.172Z,56.78
2024-01-06T12:27:12.266Z,56.60
2024-01-06T12:29:42.537Z,56.30
2024-01-06T12:32:11.396Z,56.36
2024-01-06T12:34:38.643Z,56.18
2024-01-06T12:37:05.533Z,56.09
2024-01-06T12:39:33.474Z,55.95
2024-01-06T12:42:03.126Z,55.49
2024-01-06T12:44:29.837Z,55.20
2024-01-06T12:46:56.738Z,54.95
2024-01-06T12:49:26.150Z,54.96
2024-01-06T12:51:52.964Z,54.82
2024-01-06T12:54:22.693Z,54.85
2024-01-06T12:56:50.419Z,54.81
2024-01-06T12:59:17.125Z,55.13
2024-01-06T13:01:44.562Z,55.26
2024-01-06T13:04:11.723Z,55.10
2024-01-06T13:06:41.591Z,54.97
2024-01-06T13:09:08.421Z,55.21
2024-01-06T13:11:37.221Z,55.00
2024-01-06T13:14:04.467Z,54.84
2024-01-06T13:16:31.630Z,55.05
2024-01-06T13:18:58.522Z,54.92
2024-01-06T13:21:25.534Z,54.85
2024-01-06T13:23:52.527Z,54.98
2024-01-06T13:26:19.324Z,55.36
2024-01-06T13:28:46.268Z,54.98
2024-01-06T13:31:13.221Z,55.28
2024-01-06T13:33:43.041Z,55.05
2024-01-06T13:36:09.887Z,54.91
2024-01-06T13:38:36.745Z,55.03
2024-01-06T13:41:04.383Z,55.20
2024-01-06T13:43:32.370Z,55.36
2024-01-06T13:45:59.446Z,55.42
2024-01-06T13:48:26.217Z,55.42
2024-01-06T13:50:53.193Z,55.61
2024-01-06T13:53:19.991Z,55.22
2024-01-06T13:55:46.675Z,55.62
2024-01-06T13:58:13.459Z,55.60
2024-01-06T14:00:42.526Z,55.58
2024-01-06T14:03:09.317Z,55.50
2024-01-06T14:05:36.332Z,55.67
2024-01-06T14:08:03.243Z,55.64
2024-01-06T14:10:31.233Z,55.70
2024-01-06T14:12:58.165Z,55.71
2024-01-06T14:15:24.994Z,55.67
2024-01-06T14:17:52.869Z,55.79
2024-01-06T14:20:20.283Z,55.60
2024-01-06T14:22:50.107Z,55.88
2024-01-06T14:25:20.333Z,56.19
2024-01-06T14:27:47.538Z,55.88
2024-01-06T14:30:15.086Z,56.17
2024-01-06T14:32:43.578Z,56.20
2024-01-06T14:35:14.668Z,56.31
2024-01-06T14:37:41.451Z,56.18
2024-01-06T14:40:08.850Z,56.12
2024-01-06T14:42:37.697Z,56.45
2024-01-06T14:45:05.082Z,56.07
2024-01-06T14:47:33.691Z,56.27
2024-01-06T14:50:00.799Z,56.22
2024-01-06T14:52:28.871Z,56.15
2024-01-06T14:54:55.635Z,56.68
2024-01-06T14:57:22.411Z,56.64
2024-01-06T14:59:49.149Z,57.07
2024-01-06T15:02:15.822Z,56.92
2024-01-06T15:04:42.568Z,56.94
2024-01-06T15:07:09.396Z,57.05
2024-01-06T15:09:40.012Z,56.75
2024-01-06T15:12:07.744Z,56.95
2024-01-06T15:14:35.168Z,57.09
2024-01-06T15:17:01.851Z,57.22
2024-01-06T15:19:29.199Z,56.84
2024-01-06T15:21:56.544Z,57.05
2024-01-06T15:24:24.951Z,56.75
2024-01-06T15:26:55.236Z,57.29
2024-01-06T15:29:22.157Z,56.93
2024-01-06T15:31:49.200Z,57.06
2024-01-06T15:34:16.233Z,57.05
2024-01-06T15:36:43.046Z,56.95
2024-01-06T15:39:09.924Z,56.97
2024-01-06T15:41:36.776Z,56.94
2024-01-06T15:44:03.578Z,56.75
2024-01-06T15:46:30.214Z,57.12
2024-01-06T15:48:57.116Z,56.87
2024-01-06T15:51:24.712Z,56.95
2024-01-06T15:53:52.209Z,56.78
2024-01-06T15:56:19.039Z,57.06
2024-01-06T15:58:45.716Z,56.90
2024-01-06T16:01:12.937Z,56.86
2024-01-06T16:03:40.605Z,56.64
2024-01-06T16:06:07.566Z,56.72
2024-01-06T16:08:34.427Z,56.54
2024-01-06T16:11:01.166Z,56.20
2024-01-06T16:13:27.984Z,56.12
2024-01-06T16:15:55.593Z,56.37
2024-01-06T16:18:22.539Z,56.42
2024-01-06T16:20:49.315Z,56.40
2024-01-06T16:23:18.352Z,56.26
2024-01-06T16:25:45.180Z,56.17
2024-01-06T16:28:14.819Z,56.28
2024-01-06T16:30:42.787Z,56.56
2024-01-06T16:33:09.973Z,56.06
2024-01-06T16:35:38.586Z,56.58
2024-01-06T16:38:05.855Z,56.68
2024-01-06T16:40:32.751Z,56.48
2024-01-06T16:42:59.780Z,56.49
2024-01-06T16:45:26.769Z,56.55
2024-01-06T16:47:53.653Z,56.48
2024-01-06T16:50:20.380Z,56.70
2024-01-06T16:52:46.990Z,56.82
2024-01-06T16:55:13.766Z,56.84
2024-01-06T16:57:40.513Z,57.25
2024-01-06T17:00:10.782Z,57.07
2024-01-06T17:02:38.385Z,56.86
2024-01-06T17:05:05.739Z,56.96
2024-01-06T17:07:32.774Z,57.05
2024-01-06T17:10:02.052Z,56.92
2024-01-06T17:12:28.904Z,57.30
2024-01-06T17:14:55.586Z,57.37
2024-01-06T17:17:22.327Z,57.56
2024-01-06T17:19:49.066Z,57.40
2024-01-06T17:22:15.746Z,57.55
2024-01-06T17:24:42.992Z,57.49
2024-01-06T17:27:09.918Z,57.14
2024-01-06T17:29:39.268Z,57.42
2024-01-06T17:32:06.462Z,57.25
2024-01-06T17:34:33.204Z,57.38
2024-01-06T17:37:00.252Z,57.43
2024-01-06T17:39:27.423Z,57.36
2024-01-06T17:41:59.729Z,57.60
2024-01-06T17:44:30.768Z,57.54
2024-01-06T17:46:57.437Z,57.37
2024-01-06T17:49:24.308Z,57.58
2024-01-06T17:51:51.447Z,57.47
2024-01-06T17:54:20.865Z,57.44
2024-01-06T17:56:47.682Z,57.66
2024-01-06T17:59:14.395Z,57.76
2024-01-06T18:01:41.273Z,57.30
2024-01-06T18:04:08.194Z,57.55
2024-01-06T18:06:35.204Z,57.44
2024-01-06T18:09:02.469Z,57.63
2024-01-06T18:11:29.268Z,57.45
2024-01-06T18:13:55.973Z,57.59
2024-01-06T18:16:22.694Z,57.57
2024-01-06T18:18:49.753Z,57.44
2024-01-06T18:21:16.780Z,57.43
2024-01-06T18:23:43.897Z,57.32
2024-01-06T18:26:10.601Z,57.71
2024-01-06T18:28:37.298Z,57.81
2024-01-06T18:31:04.322Z,57.65
2024-01-06T18:33:31.247Z,57.92
2024-01-06T18:36:04.134Z,58.15
2024-01-06T18:38:33.723Z,58.30
2024-01-06T18:41:01.608Z,58.59
2024-01-06T18:43:28.970Z,58.93
2024-01-06T18:45:56.043Z,58.85
2024-01-06T18:48:23.024Z,58.93
2024-01-06T18:50:49.808Z,59.06
2024-01-06T18:53:16.917Z,59.03
2024-01-06T18:55:43.928Z,59.06
2024-01-06T18:58:11.054Z,58.97
2024-01-06T19:00:37.905Z,59.10
2024-01-06T19:03:04.994Z,59.16
2024-01-06T19:05:34.683Z,58.99
2024-01-06T19:08:01.616Z,59.23
2024-01-06T19:10:29.285Z,59.48
2024-01-06T19:12:56.565Z,59.74
2024-01-06T19:15:23.651Z,59.56
2024-01-06T19:17:50.546Z,59.69
2024-01-06T19:20:17.782Z,59.70
2024-01-06T19:22:57.388Z,59.78
2024-01-06T19:25:29.894Z,59.75
2024-01-06T19:27:56.836Z,59.95
2024-01-06T19:30:31.262Z,60.09
2024-01-06T19:32:58.132Z,59.77
2024-01-06T19:35:24.930Z,60.02
2024-01-06T19:37:54.735Z,60.06
2024-01-06T19:40:22.916Z,59.88
2024-01-06T19:42:53.045Z,59.98
2024-01-06T19:45:19.932Z,60.10
2024-01-06T19:47:52.577Z,60.11
2024-01-06T19:50:20.353Z,60.19
2024-01-06T19:52:47.283Z,60.19
2024-01-06T19:55:15.453Z,60.15
2024-01-06T19:57:47.001Z,60.25
2024-01-06T20:00:14.199Z,60.34
2024-01-06T20:02:44.144Z,60.24
2024-01-06T20:05:19.995Z,60.40
2024-01-06T20:07:46.661Z,60.47
2024-01-06T20:10:13.497Z,60.41
2024-01-06T20:12:40.345Z,59.99
2024-01-06T20:15:11.504Z,60.53
2024-01-06T20:17:39.198Z,60.44
2024-01-06T20:20:07.314Z,60.10
2024-01-06T20:22:34.069Z,60.49
2024-01-06T20:25:02.642Z,60.41
2024-01-06T20:27:29.693Z,60.60
2024-01-06T20:29:56.493Z,60.52
2024-01-06T20:32:23.540Z,60.28
2024-01-06T20:34:50.672Z,60.15
2024-01-06T20:37:19.928Z,60.31
2024-01-06T20:41:34.274Z,60.38
2024-01-06T20:43:04.443Z,60.33
2024-01-06T20:45:32.480Z,60.46
2024-01-06T20:47:59.424Z,60.46
2024-01-06T20:50:26.816Z,60.38
2024-01-06T20:53:01.376Z,60.39
2024-01-06T20:55:28.213Z,60.47
2024-01-06T20:57:58.179Z,60.37
2024-01-06T21:00:25.897Z,60.17
2024-01-06T21:02:53.328Z,60.25
2024-01-06T21:05:20.109Z,60.31
2024-01-06T21:07:49.101Z,60.13
2024-01-06T21:10:16.572Z,60.23
2024-01-06T21:13:02.809Z,60.13
2024-01-06T21:15:29.588Z,59.77
2024-01-06T21:17:56.827Z,60.18
2024-01-06T21:20:23.831Z,60.18
2024-01-06T21:22:52.864Z,60.35
2024-01-06T21:25:21.708Z,60.35
2024-01-06T21:27:49.231Z,59.99
2024-01-06T21:30:27.946Z,60.21
2024-01-06T21:33:02.147Z,60.08
2024-01-06T21:35:31.181Z,59.99
2024-01-06T21:38:00.977Z,60.02
2024-01-06T21:40:28.222Z,60.25
2024-01-06T21:42:55.881Z,60.29
2024-01-06T21:45:22.812Z,60.04
2024-01-06T21:47:50.565Z,60.10
2024-01-06T21:50:17.454Z,60.01
2024-01-06T21:52:44.860Z,60.20
2024-01-06T21:58:44.480Z,59.85
2024-01-06T22:01:11.917Z,59.75
2024-01-06T22:03:42.215Z,59.96
2024-01-06T22:06:17.149Z,59.89
2024-01-06T22:08:48.095Z,60.05
2024-01-06T22:11:16.272Z,60.25
2024-01-06T22:13:43.274Z,60.28
2024-01-06T22:16:10.092Z,60.10
2024-01-06T22:18:42.222Z,59.96
2024-01-06T22:21:09.326Z,60.03
2024-01-06T22:23:36.033Z,59.72
2024-01-06T22:26:09.853Z,60.17
2024-01-06T22:28:36.631Z,59.81
2024-01-06T22:31:05.447Z,59.92
2024-01-06T22:33:32.617Z,60.17
2024-01-06T22:36:03.633Z,60.48
2024-01-06T22:38:54.947Z,60.51
2024-01-06T22:41:24.452Z,60.36
2024-01-06T22:43:51.567Z,60.46
2024-01-06T22:46:18.983Z,60.64
2024-01-06T22:48:45.849Z,60.51
2024-01-06T22:51:12.661Z,60.35
2024-01-06T22:53:39.366Z,60.29
2024-01-06T22:56:09.687Z,60.81
2024-01-06T22:58:37.658Z,60.34
2024-01-06T23:01:06.737Z,59.96
2024-01-06T23:03:33.828Z,60.01
2024-01-06T23:06:00.767Z,59.90
2024-01-06T23:08:35.195Z,60.19
2024-01-06T23:11:02.437Z,60.00
2024-01-06T23:13:29.146Z,60.00
2024-01-06T23:15:56.922Z,59.48
2024-01-06T23:18:24.254Z,59.89
2024-01-06T23:20:51.003Z,59.80
2024-01-06T23:23:17.640Z,59.24
2024-01-06T23:25:47.369Z,59.68
2024-01-06T23:28:14.030Z,59.66
2024-01-06T23:30:42.112Z,59.94
2024-01-06T23:33:09.268Z,60.04
2024-01-06T23:35:36.143Z,59.98
2024-01-06T23:38:02.836Z,59.70
2024-01-06T23:40:29.590Z,59.69
2024-01-06T23:42:56.394Z,59.43
2024-01-06T23:45:26.505Z,59.72
2024-01-06T23:47:54.410Z,59.48
2024-01-06T23:50:21.441Z,59.26
2024-01-06T23:52:48.140Z,59.38
2024-01-06T23:55:15.880Z,59.75
2024-01-06T23:57:42.579Z,59.26
